createdAt,value
2018-10-09T00:00:25.772Z,95191.87
2018-10-09T00:02:54.416Z,95194.44
2018-10-09T00:05:23.055Z,95189.27
2018-10-09T00:07:51.772Z,95189.95
2018-10-09T00:10:20.557Z,95187.03
2018-10-09T00:12:49.238Z,95184.59
2018-10-09T00:15:18.040Z,95179.41
2018-10-09T00:17:46.843Z,95179.56
2018-10-09T00:20:19.892Z,95179.23
2018-10-09T00:22:48.691Z,95188.04
2018-10-09T00:25:17.396Z,95186.58
2018-10-09T00:27:46.067Z,95184.14
2018-10-09T00:30:14.781Z,95187.56
2018-10-09T00:32:43.521Z,95186.56
2018-10-09T00:35:12.217Z,95188.70
2018-10-09T00:37:40.954Z,95188.01
2018-10-09T00:40:09.624Z,95186.72
2018-10-09T00:42:38.331Z,95192.43
2018-10-09T00:45:07.097Z,95190.97
2018-10-09T00:47:35.779Z,95185.60
2018-10-09T00:50:04.857Z,95183.02
2018-10-09T00:52:33.621Z,95189.20
2018-10-09T00:55:02.279Z,95186.59
2018-10-09T00:57:31.047Z,95186.41
2018-10-09T00:59:59.751Z,95195.23
2018-10-09T01:02:28.452Z,95190.84
2018-10-09T01:04:57.119Z,95189.70
2018-10-09T01:07:25.803Z,95190.52
2018-10-09T01:09:54.492Z,95189.55
2018-10-09T01:12:23.280Z,95189.05
2018-10-09T01:14:52.687Z,95189.55
2018-10-09T01:17:21.457Z,95187.73
2018-10-09T01:19:50.182Z,95186.91
2018-10-09T01:22:18.838Z,95190.33
2018-10-09T01:24:47.528Z,95193.09
2018-10-09T01:27:16.223Z,95187.75
2018-10-09T01:29:44.910Z,95193.75
2018-10-09T01:32:13.596Z,95192.13
2018-10-09T01:34:42.264Z,95188.22
2018-10-09T01:37:10.942Z,95194.89
2018-10-09T01:39:39.599Z,95191.97
2018-10-09T01:42:08.570Z,95195.37
2018-10-09T01:44:37.264Z,95190.33
2018-10-09T01:47:06.162Z,95190.64
2018-10-09T01:49:34.830Z,95195.20
2018-10-09T01:52:03.550Z,95193.58
2018-10-09T01:54:32.199Z,95197.95
2018-10-09T01:57:00.885Z,95192.91
2018-10-09T01:59:29.543Z,95190.61
2018-10-09T02:01:58.230Z,95190.94
2018-10-09T02:04:26.896Z,95194.02
2018-10-09T02:06:55.556Z,95193.17
2018-10-09T02:09:24.178Z,95190.55
2018-10-09T02:11:52.836Z,95198.31
2018-10-09T02:14:21.512Z,95192.98
2018-10-09T02:16:50.312Z,95202.70
2018-10-09T02:19:19.043Z,95199.94
2018-10-09T02:21:47.729Z,95200.91
2018-10-09T02:24:16.384Z,95199.59
2018-10-09T02:26:45.052Z,95198.22
2018-10-09T02:29:13.784Z,95197.23
2018-10-09T02:31:42.448Z,95199.66
2018-10-09T02:34:11.081Z,95198.37
2018-10-09T02:36:39.796Z,95194.94
2018-10-09T02:39:10.713Z,95204.54
2018-10-09T02:41:39.372Z,95200.45
2018-10-09T02:44:08.731Z,95204.34
2018-10-09T02:46:37.370Z,95210.16
2018-10-09T02:49:06.258Z,95207.92
2018-10-09T02:51:34.945Z,95196.91
2018-10-09T02:54:03.626Z,95202.08
2018-10-09T02:56:32.336Z,95199.44
2018-10-09T02:59:01.072Z,95197.52
2018-10-09T03:01:29.719Z,95200.45
2018-10-09T03:06:03.998Z,95204.63
2018-10-09T03:08:32.658Z,95200.27
2018-10-09T03:11:01.436Z,95200.39
2018-10-09T03:13:30.204Z,95204.91
2018-10-09T03:15:58.926Z,95201.42
2018-10-09T03:18:27.711Z,95212.47
2018-10-09T03:20:56.392Z,95209.27
2018-10-09T03:23:25.025Z,95211.70
2018-10-09T03:25:53.724Z,95217.18
2018-10-09T03:28:22.444Z,95211.10
2018-10-09T03:30:51.171Z,95214.55
2018-10-09T03:33:19.823Z,95219.84
2018-10-09T03:35:48.479Z,95218.20
2018-10-09T03:38:17.139Z,95219.55
2018-10-09T03:40:45.794Z,95219.90
2018-10-09T03:43:14.480Z,95215.37
2018-10-09T03:45:43.125Z,95213.95
2018-10-09T03:48:11.815Z,95216.75
2018-10-09T03:50:40.530Z,95215.45
2018-10-09T03:53:09.215Z,95215.17
2018-10-09T03:55:37.911Z,95211.47
2018-10-09T03:58:06.733Z,95221.19
2018-10-09T04:00:35.415Z,95225.91
2018-10-09T04:03:04.096Z,95229.92
2018-10-09T04:05:32.763Z,95224.38
2018-10-09T04:08:01.428Z,95226.09
2018-10-09T06:14:11.636Z,95312.75
2018-10-09T06:16:40.289Z,95315.13
2018-10-09T06:19:08.963Z,95316.95
2018-10-09T06:21:37.693Z,95322.81
2018-10-09T06:24:06.541Z,95323.27
2018-10-09T06:26:35.286Z,95321.48
2018-10-09T06:29:04.037Z,95324.17
2018-10-09T06:31:32.711Z,95326.17
2018-10-09T06:34:01.553Z,95326.08
2018-10-09T06:36:30.211Z,95333.31
2018-10-09T06:38:58.908Z,95331.39
2018-10-09T06:41:27.565Z,95330.92
2018-10-09T06:43:56.234Z,95335.86
2018-10-09T06:46:24.916Z,95337.97
2018-10-09T06:48:53.600Z,95338.52
2018-10-09T06:51:22.312Z,95340.46
2018-10-09T06:53:51.093Z,95338.16
2018-10-09T06:56:19.685Z,95338.16
2018-10-09T06:58:48.400Z,95342.06
2018-10-09T07:01:17.048Z,95344.00
2018-10-09T07:03:45.717Z,95342.84
2018-10-09T07:06:14.402Z,95343.01
2018-10-09T07:08:43.036Z,95342.80
2018-10-09T07:11:11.818Z,95345.72
2018-10-09T07:13:40.446Z,95341.97
2018-10-09T07:16:09.152Z,95340.30
2018-10-09T07:18:37.824Z,95341.89
2018-10-09T07:21:06.621Z,95336.92
2018-10-09T07:23:35.306Z,95339.03
2018-10-09T07:26:03.984Z,95337.38
2018-10-09T07:28:32.635Z,95340.11
2018-10-09T07:31:01.494Z,95340.38
2018-10-09T07:33:30.235Z,95337.52
2018-10-09T07:35:58.948Z,95346.27
2018-10-09T07:38:27.636Z,95347.50
2018-10-09T07:40:56.429Z,95347.56
2018-10-09T07:43:25.136Z,95342.25
2018-10-09T07:45:53.773Z,95342.27
2018-10-09T07:48:22.687Z,95341.56
2018-10-09T07:50:52.020Z,95339.44
2018-10-09T07:53:20.687Z,95341.16
2018-10-09T07:55:49.404Z,95344.86
2018-10-09T07:58:18.091Z,95340.78
2018-10-09T08:00:46.790Z,95334.83
2018-10-09T08:03:15.460Z,95339.16
2018-10-09T08:05:44.127Z,95333.91
2018-10-09T08:08:12.872Z,95340.80
2018-10-09T08:10:42.110Z,95333.42
2018-10-09T08:13:10.760Z,95336.24
2018-10-09T08:15:39.432Z,95335.82
2018-10-09T08:18:08.119Z,95341.34
2018-10-09T08:20:36.820Z,95342.06
2018-10-09T08:23:05.469Z,95335.17
2018-10-09T08:25:34.148Z,95333.69
2018-10-09T08:28:02.856Z,95332.19
2018-10-09T08:30:31.839Z,95334.38
2018-10-09T08:33:00.499Z,95332.55
2018-10-09T08:35:29.140Z,95331.31
2018-10-09T08:37:57.798Z,95335.03
2018-10-09T08:40:26.562Z,95332.92
2018-10-09T08:42:55.215Z,95332.97
2018-10-09T08:45:23.966Z,95338.09
2018-10-09T08:47:52.602Z,95329.03
2018-10-09T08:50:21.247Z,95333.48
2018-10-09T08:52:49.900Z,95341.55
2018-10-09T08:55:18.610Z,95343.66
2018-10-09T08:57:47.263Z,95346.83
2018-10-09T09:00:15.975Z,95343.28
2018-10-09T09:02:44.768Z,95345.03
2018-10-09T09:05:13.467Z,95350.46
2018-10-09T09:07:42.143Z,95347.06
2018-10-09T09:10:10.811Z,95351.72
2018-10-09T09:12:39.425Z,95344.94
2018-10-09T09:15:08.533Z,95343.30
2018-10-09T09:17:37.242Z,95343.73
2018-10-09T09:20:05.955Z,95340.11
2018-10-09T09:22:34.628Z,95345.90
2018-10-09T09:25:03.308Z,95342.02
2018-10-09T09:27:32.035Z,95339.11
2018-10-09T09:30:00.677Z,95347.21
2018-10-09T09:32:29.354Z,95348.84
2018-10-09T09:34:58.466Z,95346.69
2018-10-09T09:37:27.190Z,95343.77
2018-10-09T09:39:55.942Z,95343.18
2018-10-09T09:42:25.046Z,95339.05
2018-10-09T09:44:53.800Z,95344.06
2018-10-09T09:47:22.469Z,95340.44
2018-10-09T09:49:51.105Z,95330.19
2018-10-09T09:52:19.736Z,95338.02
2018-10-09T09:54:48.371Z,95336.64
2018-10-09T09:57:17.031Z,95338.53
2018-10-09T09:59:46.201Z,95327.75
2018-10-09T10:02:14.838Z,95329.05
2018-10-09T10:04:44.102Z,95332.06
2018-10-09T10:07:12.779Z,95331.52
2018-10-09T10:09:41.412Z,95327.92
2018-10-09T10:12:10.157Z,95328.91
2018-10-09T10:14:38.901Z,95321.55
2018-10-09T10:17:07.604Z,95317.73
2018-10-09T10:19:36.227Z,95319.89
2018-10-09T10:22:04.904Z,95320.70
2018-10-09T10:24:33.599Z,95316.17
2018-10-09T10:27:02.262Z,95311.66
2018-10-09T10:29:30.909Z,95311.44
2018-10-09T10:31:59.536Z,95309.46
2018-10-09T10:34:28.188Z,95306.65
2018-10-09T10:36:56.828Z,95309.52
2018-10-09T10:39:25.539Z,95301.10
2018-10-09T10:41:54.171Z,95304.41
2018-10-09T10:44:22.829Z,95299.16
2018-10-09T10:46:51.511Z,95303.63
2018-10-09T10:49:20.170Z,95297.17
2018-10-09T10:51:48.834Z,95289.16
2018-10-09T10:54:17.512Z,95294.06
2018-10-09T10:56:46.160Z,95293.27
2018-10-09T10:59:14.865Z,95293.12
2018-10-09T11:01:43.634Z,95284.61
2018-10-09T11:04:12.281Z,95260.80
2018-10-09T11:06:40.923Z,95288.20
2018-10-09T11:09:10.776Z,95289.09
2018-10-09T11:11:39.429Z,95285.97
2018-10-09T11:14:08.248Z,95281.52
2018-10-09T11:16:36.865Z,95284.95
2018-10-09T11:19:05.555Z,95280.58
2018-10-09T11:21:34.284Z,95283.44
2018-10-09T11:24:02.952Z,95269.98
2018-10-09T11:26:31.715Z,95276.81
2018-10-09T11:29:00.380Z,95275.05
2018-10-09T11:31:29.003Z,95280.20
2018-10-09T11:33:57.721Z,95276.34
2018-10-09T11:36:26.576Z,95281.46
2018-10-09T11:38:55.283Z,95282.75
2018-10-09T11:41:23.949Z,95281.33
2018-10-09T11:43:52.645Z,95281.36
2018-10-09T11:46:21.320Z,95282.69
2018-10-09T11:48:50.025Z,95278.80
2018-10-09T11:51:18.803Z,95279.42
2018-10-09T11:53:47.472Z,95276.94
2018-10-09T11:56:16.098Z,95274.13
2018-10-09T11:58:44.897Z,95272.45
2018-10-09T12:01:13.647Z,95273.78
2018-10-09T12:03:42.266Z,95268.40
2018-10-09T12:06:10.946Z,95273.37
2018-10-09T12:08:40.241Z,95261.94
2018-10-09T12:11:08.959Z,95266.50
2018-10-09T12:13:37.624Z,95275.58
2018-10-09T12:16:06.327Z,95264.64
2018-10-09T12:18:35.025Z,95267.63
2018-10-09T12:21:03.716Z,95266.73
2018-10-09T12:23:32.363Z,95269.23
2018-10-09T12:26:01.032Z,95277.37
2018-10-09T12:28:29.697Z,95269.22
2018-10-09T12:30:58.357Z,95270.59
2018-10-09T12:33:27.278Z,95267.34
2018-10-09T12:35:55.972Z,95279.58
2018-10-09T12:38:24.722Z,95276.73
2018-10-09T12:40:53.397Z,95269.91
2018-10-09T12:43:22.068Z,95270.73
2018-10-09T12:45:50.741Z,95271.34
2018-10-09T12:48:19.373Z,95269.74
2018-10-09T12:50:48.017Z,95270.33
2018-10-09T12:53:16.750Z,95270.62
2018-10-09T12:55:45.415Z,95268.39
2018-10-09T12:58:14.190Z,95268.69
2018-10-09T13:00:43.017Z,95271.44
2018-10-09T13:03:11.724Z,95260.51
2018-10-09T13:05:40.422Z,95267.44
2018-10-09T13:08:09.083Z,95265.01
2018-10-09T13:10:37.805Z,95262.24
2018-10-09T13:13:06.703Z,95270.25
2018-10-09T13:15:35.389Z,95262.83
2018-10-09T13:18:04.113Z,95253.25
2018-10-09T13:20:32.839Z,95260.03
2018-10-09T13:23:01.522Z,95255.22
2018-10-09T13:25:30.228Z,95258.80
2018-10-09T13:27:58.857Z,95255.36
2018-10-09T13:30:27.581Z,95257.77
2018-10-09T13:32:56.321Z,95251.18
2018-10-09T13:35:25.027Z,95252.41
2018-10-09T13:37:53.699Z,95253.92
2018-10-09T13:40:22.351Z,95257.09
2018-10-09T13:42:50.999Z,95253.59
2018-10-09T13:45:19.701Z,95250.21
2018-10-09T13:47:48.682Z,95248.58
2018-10-09T13:50:17.332Z,95255.65
2018-10-09T13:52:45.998Z,95254.64
2018-10-09T13:55:14.728Z,95253.62
2018-10-09T13:57:43.404Z,95251.72
2018-10-09T14:00:12.110Z,95252.08
2018-10-09T14:02:40.735Z,95248.52
2018-10-09T14:05:09.487Z,95236.37
2018-10-09T14:07:38.281Z,95250.02
2018-10-09T14:10:07.189Z,95251.72
2018-10-09T14:12:35.873Z,95248.00
2018-10-09T14:15:04.581Z,95248.62
2018-10-09T14:17:33.328Z,95243.05
2018-10-09T14:20:02.032Z,95252.72
2018-10-09T14:22:30.789Z,95248.31
2018-10-09T14:24:59.440Z,95250.95
2018-10-09T14:27:28.108Z,95250.64
2018-10-09T14:29:56.786Z,95251.38
2018-10-09T14:32:25.473Z,95250.42
2018-10-09T14:34:54.175Z,95244.19
2018-10-09T14:37:23.092Z,95251.97
2018-10-09T14:39:51.776Z,95255.80
2018-10-09T14:42:20.497Z,95253.98
2018-10-09T14:44:49.135Z,95259.03
2018-10-09T14:47:17.849Z,95257.06
2018-10-09T14:49:46.552Z,95259.78
2018-10-09T14:52:15.198Z,95256.59
2018-10-09T14:54:43.818Z,95251.75
2018-10-09T14:57:12.462Z,95254.69
2018-10-09T14:59:41.164Z,95258.08
2018-10-09T15:02:09.970Z,95254.59
2018-10-09T15:04:38.756Z,95255.27
2018-10-09T15:07:07.531Z,95253.52
2018-10-09T15:09:36.241Z,95255.84
2018-10-09T15:12:04.913Z,95248.14
2018-10-09T15:14:33.632Z,95256.08
2018-10-09T15:17:02.422Z,95260.81
2018-10-09T15:19:31.058Z,95262.05
2018-10-09T15:21:59.796Z,95262.77
2018-10-09T15:24:28.460Z,95263.90
2018-10-09T15:26:57.164Z,95267.86
2018-10-09T15:29:25.933Z,95259.92
2018-10-09T15:31:54.669Z,95263.42
2018-10-09T15:34:23.377Z,95271.33
2018-10-09T15:36:52.099Z,95271.84
2018-10-09T15:39:20.749Z,95275.11
2018-10-09T15:41:49.478Z,95273.77
2018-10-09T15:44:18.151Z,95273.36
2018-10-09T15:46:46.855Z,95275.90
2018-10-09T15:49:15.711Z,95279.89
2018-10-09T15:51:44.431Z,95281.09
2018-10-09T15:54:13.203Z,95287.20
2018-10-09T15:56:41.947Z,95290.41
2018-10-09T15:59:10.798Z,95288.00
2018-10-09T16:01:39.495Z,95288.92
2018-10-09T16:04:08.341Z,95294.30
2018-10-09T16:06:37.118Z,95302.22
2018-10-09T16:09:07.896Z,95302.83
2018-10-09T16:12:22.113Z,95299.73
2018-10-09T16:14:50.808Z,95304.45
2018-10-09T16:17:19.505Z,95302.95
2018-10-09T16:19:48.269Z,95304.57
2018-10-09T16:22:16.957Z,95306.39
2018-10-09T16:24:45.603Z,95308.94
2018-10-09T16:27:14.290Z,95314.31
2018-10-09T16:29:42.965Z,95312.89
2018-10-09T16:32:11.651Z,95320.15
2018-10-09T16:34:40.388Z,95319.02
2018-10-09T16:37:09.062Z,95325.07
2018-10-09T16:39:37.790Z,95324.74
2018-10-09T16:42:06.428Z,95319.86
2018-10-09T16:44:35.218Z,95328.96
2018-10-09T16:47:05.487Z,95334.89
2018-10-09T16:49:35.493Z,95332.36
2018-10-09T16:52:04.272Z,95334.45
2018-10-09T16:54:32.977Z,95336.55
2018-10-09T16:57:01.652Z,95336.55
2018-10-09T16:59:30.369Z,95336.96
2018-10-09T17:01:59.073Z,95340.19
2018-10-09T17:04:27.794Z,95342.22
2018-10-09T17:06:56.556Z,95343.57
2018-10-09T17:09:25.205Z,95344.40
2018-10-09T17:11:53.861Z,95348.34
2018-10-09T17:14:22.609Z,95348.15
2018-10-09T17:16:51.317Z,95345.30
2018-10-09T17:19:20.085Z,95349.20
2018-10-09T17:21:48.824Z,95349.72
2018-10-09T17:24:17.465Z,95354.84
2018-10-09T17:26:46.315Z,95353.52
2018-10-09T17:29:15.054Z,95361.58
2018-10-09T17:31:43.819Z,95361.07
2018-10-09T17:34:12.480Z,95360.20
2018-10-09T17:36:41.421Z,95366.56
2018-10-09T17:39:11.505Z,95367.34
2018-10-09T17:41:40.324Z,95362.72
2018-10-09T17:44:09.284Z,95361.67
2018-10-09T17:46:38.695Z,95367.52
2018-10-09T17:49:07.345Z,95367.91
2018-10-09T17:51:36.097Z,95374.40
2018-10-09T17:54:04.839Z,95375.52
2018-10-09T17:56:33.518Z,95382.33
2018-10-09T17:59:02.208Z,95388.30
2018-10-09T18:01:30.893Z,95385.87
2018-10-09T18:03:59.537Z,95390.59
2018-10-09T18:06:28.361Z,95392.63
2018-10-09T18:08:57.163Z,95394.72
2018-10-09T18:11:25.845Z,95404.05
2018-10-09T18:13:54.544Z,95404.66
2018-10-09T18:16:23.259Z,95409.34
2018-10-09T18:18:51.896Z,95404.14
2018-10-09T18:21:20.584Z,95409.44
2018-10-09T18:23:49.219Z,95407.13
2018-10-09T18:26:17.888Z,95407.93
2018-10-09T18:28:46.588Z,95412.13
2018-10-09T18:31:15.265Z,95412.01
2018-10-09T18:33:43.974Z,95410.38
2018-10-09T18:36:12.652Z,95413.58
2018-10-09T18:38:41.318Z,95413.14
2018-10-09T18:41:10.142Z,95422.92
2018-10-09T18:43:38.761Z,95417.62
2018-10-09T18:46:07.560Z,95420.95
2018-10-09T18:48:36.320Z,95421.94
2018-10-09T18:51:05.109Z,95431.28
2018-10-09T18:53:33.761Z,95429.70
2018-10-09T18:56:02.452Z,95429.56
2018-10-09T18:58:31.153Z,95427.99
2018-10-09T19:00:59.869Z,95433.45
2018-10-09T19:03:28.567Z,95430.67
2018-10-09T19:05:57.356Z,95440.56
2018-10-09T19:08:26.051Z,95433.50
2018-10-09T19:10:54.816Z,95430.41
2018-10-09T19:13:23.465Z,95428.88
2018-10-09T19:15:52.209Z,95431.35
2018-10-09T19:18:21.048Z,95439.22
2018-10-09T19:20:49.768Z,95436.39
2018-10-09T19:23:18.464Z,95436.91
2018-10-09T19:25:47.258Z,95440.58
2018-10-09T19:28:15.981Z,95448.42
2018-10-09T19:30:44.776Z,95445.59
2018-10-09T19:33:13.489Z,95448.56
2018-10-09T19:35:42.191Z,95450.84
2018-10-09T19:38:10.847Z,95457.61
2018-10-09T19:40:39.566Z,95453.92
2018-10-09T19:43:08.301Z,95460.45
2018-10-09T19:45:36.975Z,95458.55
2018-10-09T19:48:05.729Z,95465.37
2018-10-09T19:50:34.508Z,95468.69
2018-10-09T19:53:03.131Z,95467.41
2018-10-09T19:55:31.783Z,95473.45
2018-10-09T19:58:00.437Z,95476.56
2018-10-09T20:00:29.280Z,95475.23
2018-10-09T20:02:57.952Z,95479.34
2018-10-09T20:05:27.294Z,95470.03
2018-10-09T20:07:55.968Z,95476.23
2018-10-09T20:10:24.620Z,95481.16
2018-10-09T20:12:53.287Z,95474.97
2018-10-09T20:15:22.112Z,95480.67
2018-10-09T20:17:50.727Z,95473.34
2018-10-09T20:20:19.360Z,95475.78
2018-10-09T20:22:48.156Z,95479.54
2018-10-09T20:25:16.912Z,95482.80
2018-10-09T20:27:45.577Z,95480.87
2018-10-09T20:30:15.922Z,95483.00
2018-10-09T20:32:44.595Z,95481.83
2018-10-09T20:35:13.256Z,95481.67
2018-10-09T20:37:42.007Z,95486.70
2018-10-09T20:40:10.683Z,95485.75
2018-10-09T20:42:39.354Z,95487.55
2018-10-09T20:45:08.210Z,95492.27
2018-10-09T20:47:42.154Z,95491.61
2018-10-09T20:50:10.865Z,95499.81
2018-10-09T20:52:39.530Z,95496.20
2018-10-09T20:55:08.233Z,95496.87
2018-10-09T21:01:09.411Z,95496.37
2018-10-09T21:03:38.068Z,95497.70
2018-10-09T21:06:06.798Z,95502.58
2018-10-09T21:08:35.465Z,95494.42
2018-10-09T21:11:04.152Z,95504.86
2018-10-09T21:13:32.841Z,95502.72
2018-10-09T21:16:01.521Z,95499.64
2018-10-09T21:18:30.158Z,95499.33
2018-10-09T21:20:58.797Z,95500.14
2018-10-09T21:23:27.564Z,95504.53
2018-10-09T21:25:56.298Z,95511.69
2018-10-09T21:28:24.958Z,95510.39
2018-10-09T21:30:54.535Z,95515.27
2018-10-09T21:33:23.287Z,95517.17
2018-10-09T21:35:52.461Z,95514.73
2018-10-09T21:38:21.129Z,95519.95
2018-10-09T21:40:49.858Z,95521.75
2018-10-09T21:43:18.574Z,95514.73
2018-10-09T21:45:47.229Z,95515.86
2018-10-09T21:48:15.892Z,95519.91
2018-10-09T21:50:44.659Z,95518.00
2018-10-09T21:53:13.429Z,95520.11
2018-10-09T21:55:42.072Z,95514.09
2018-10-09T21:58:10.748Z,95517.70
2018-10-09T22:00:44.689Z,95515.91
2018-10-09T22:03:13.419Z,95518.47
2018-10-09T22:05:42.096Z,95519.09
2018-10-09T22:08:10.752Z,95516.08
2018-10-09T22:10:39.508Z,95517.81
2018-10-09T22:13:08.291Z,95516.50
2018-10-09T22:15:36.984Z,95513.91
2018-10-09T22:18:05.712Z,95517.13
2018-10-09T22:20:34.434Z,95512.53
2018-10-09T22:23:03.136Z,95511.52
2018-10-09T22:25:31.915Z,95509.24
2018-10-09T22:28:00.646Z,95508.28
2018-10-09T22:30:29.393Z,95506.14
2018-10-09T22:32:58.008Z,95505.52
2018-10-09T22:35:26.699Z,95503.36
2018-10-09T22:37:55.342Z,95505.69
2018-10-09T22:40:24.015Z,95509.77
2018-10-09T22:42:52.639Z,95512.61
2018-10-09T22:45:21.280Z,95513.13
2018-10-09T22:47:49.964Z,95513.23
2018-10-09T22:50:18.647Z,95505.57
2018-10-09T22:52:47.345Z,95507.16
2018-10-09T22:55:15.975Z,95507.94
2018-10-09T22:57:44.620Z,95506.88
2018-10-09T23:00:13.332Z,95507.05
2018-10-09T23:02:42.102Z,95512.58
2018-10-09T23:05:10.724Z,95505.77
2018-10-09T23:07:39.690Z,95505.31
2018-10-09T23:10:08.367Z,95515.33
2018-10-09T23:12:37.015Z,95508.38
2018-10-09T23:15:06.169Z,95508.88
2018-10-09T23:17:34.861Z,95509.88
2018-10-09T23:20:03.548Z,95510.20
2018-10-09T23:22:32.180Z,95513.48
2018-10-09T23:25:00.804Z,95512.65
2018-10-09T23:27:29.492Z,95508.29
2018-10-09T23:29:58.139Z,95506.83
2018-10-09T23:32:26.861Z,95512.87
2018-10-09T23:34:55.524Z,95514.02
2018-10-09T23:37:24.163Z,95508.48
2018-10-09T23:39:52.887Z,95507.95
2018-10-09T23:42:21.570Z,95508.30
2018-10-09T23:44:50.257Z,95509.92
2018-10-09T23:47:18.954Z,95505.00
2018-10-09T23:49:47.652Z,95502.88
2018-10-09T23:52:16.331Z,95497.52
2018-10-09T23:54:45.029Z,95505.44
2018-10-09T23:57:13.639Z,95500.73
2018-10-09T23:59:42.309Z,95502.05
